Terminal Aerodrome Forecast
Issued by NWS Twin Cities, MN

Home | Current Version | Previous Version | Graphics & Text | Print | Product List | Glossary On
Versions: 1 2 3 4 5 6 7 8 9 10 11 12 13 14 15 16 17 18 19 20 21 22
070
FTUS43 KMPX 201739
TAFMSP
TAF
KMSP 201739Z 2018/2124 33010G18KT P6SM OVC015
     FM201900 33010G20KT P6SM SCT015 OVC020
     FM202200 33013KT P6SM OVC025
     FM210300 33010KT P6SM BKN040
     FM210600 33004KT P6SM SCT030
     FM211400 34009KT P6SM FEW030=

USA.gov is the U.S. government's official web portal to all federal, state and local government web resources and services.